sensor_id;sensor_type;location;lat;lon;timestamp;pressure;altitude;pressure_sealevel;temperature;humidity
141;BME280;65;48.778;9.160;2023-07-20T00:00:56;98349.31;;;19.94;55.19
141;BME280;65;48.778;9.160;2023-07-20T00:03:41;98350.94;;;19.86;55.41
141;BME280;65;48.778;9.160;2023-07-20T00:06:27;98354.38;;;19.79;54.71
141;BME280;65;48.778;9.160;2023-07-20T00:09:13;98360.88;;;19.76;54.90
141;BME280;65;48.778;9.160;2023-07-20T00:11:58;98354.16;;;19.63;58.14
141;BME280;65;48.778;9.160;2023-07-20T00:14:45;98352.31;;;19.63;54.11
141;BME280;65;48.778;9.160;2023-07-20T00:17:31;98348.28;;;19.49;52.39
141;BME280;65;48.778;9.160;2023-07-20T00:20:17;98351.09;;;19.48;52.68
141;BME280;65;48.778;9.160;2023-07-20T00:23:03;98350.41;;;19.46;51.86
141;BME280;65;48.778;9.160;2023-07-20T00:25:49;98352.25;;;19.45;51.83
141;BME280;65;48.778;9.160;2023-07-20T00:28:35;98353.25;;;19.44;53.71
141;BME280;65;48.778;9.160;2023-07-20T00:31:21;98361.28;;;19.44;51.53
141;BME280;65;48.778;9.160;2023-07-20T00:34:06;98355.28;;;19.33;51.84
141;BME280;65;48.778;9.160;2023-07-20T00:36:52;98347.69;;;19.28;52.30
141;BME280;65;48.778;9.160;2023-07-20T00:39:38;98349.66;;;19.26;54.12
141;BME280;65;48.778;9.160;2023-07-20T00:42:24;98355.72;;;19.28;52.39
141;BME280;65;48.778;9.160;2023-07-20T00:45:09;98350.66;;;19.25;53.46
141;BME280;65;48.778;9.160;2023-07-20T00:47:56;98361.25;;;19.17;52.51
141;BME280;65;48.778;9.160;2023-07-20T00:50:42;98351.44;;;19.08;54.28
141;BME280;65;48.778;9.160;2023-07-20T00:53:29;98351.97;;;19.11;54.30
141;BME280;65;48.778;9.160;2023-07-20T00:56:39;98354.38;;;19.14;54.37
141;BME280;65;48.778;9.160;2023-07-20T00:59:25;98361.97;;;19.19;53.84
141;BME280;65;48.778;9.160;2023-07-20T01:02:11;98367.16;;;19.20;53.52
141;BME280;65;48.778;9.160;2023-07-20T01:04:57;98362.41;;;19.14;53.28
141;BME280;65;48.778;9.160;2023-07-20T01:07:48;98361.81;;;19.20;53.80
141;BME280;65;48.778;9.160;2023-07-20T01:10:43;98364.38;;;19.12;53.80
141;BME280;65;48.778;9.160;2023-07-20T01:13:32;98369.63;;;18.94;54.19
141;BME280;65;48.778;9.160;2023-07-20T01:16:18;98367.94;;;18.93;54.50
141;BME280;65;48.778;9.160;2023-07-20T01:19:04;98375.16;;;18.83;58.16
141;BME280;65;48.778;9.160;2023-07-20T01:21:59;98367.84;;;18.76;56.63
141;BME280;65;48.778;9.160;2023-07-20T01:27:59;98372.91;;;18.79;55.43
141;BME280;65;48.778;9.160;2023-07-20T01:31:19;98367.97;;;18.84;55.22
141;BME280;65;48.778;9.160;2023-07-20T01:34:08;98364.19;;;18.77;56.35
141;BME280;65;48.778;9.160;2023-07-20T01:36:55;98365.03;;;18.68;57.06
141;BME280;65;48.778;9.160;2023-07-20T01:39:42;98368.69;;;18.57;57.31
141;BME280;65;48.778;9.160;2023-07-20T01:42:28;98366.00;;;18.47;58.34
141;BME280;65;48.778;9.160;2023-07-20T01:45:14;98367.81;;;18.47;58.58
141;BME280;65;48.778;9.160;2023-07-20T01:48:00;98366.28;;;18.44;58.15
141;BME280;65;48.778;9.160;2023-07-20T01:50:45;98368.41;;;18.41;58.81
141;BME280;65;48.778;9.160;2023-07-20T01:53:31;98367.56;;;18.30;60.24
141;BME280;65;48.778;9.160;2023-07-20T01:56:17;98361.94;;;18.24;59.49
141;BME280;65;48.778;9.160;2023-07-20T01:59:03;98370.94;;;18.23;59.27
141;BME280;65;48.778;9.160;2023-07-20T02:01:48;98367.00;;;18.17;60.59
141;BME280;65;48.778;9.160;2023-07-20T02:04:34;98367.84;;;18.08;60.87
141;BME280;65;48.778;9.160;2023-07-20T02:07:20;98364.31;;;17.98;61.61
141;BME280;65;48.778;9.160;2023-07-20T02:10:06;98368.38;;;17.92;61.63
141;BME280;65;48.778;9.160;2023-07-20T02:12:52;98370.47;;;17.89;62.76
141;BME280;65;48.778;9.160;2023-07-20T02:15:37;98376.41;;;17.92;60.89
141;BME280;65;48.778;9.160;2023-07-20T02:18:23;98374.88;;;17.99;61.05
141;BME280;65;48.778;9.160;2023-07-20T02:21:09;98374.88;;;17.99;60.58
141;BME280;65;48.778;9.160;2023-07-20T02:23:55;98367.69;;;18.00;61.48
141;BME280;65;48.778;9.160;2023-07-20T02:26:40;98372.06;;;18.01;62.50
141;BME280;65;48.778;9.160;2023-07-20T02:29:26;98369.09;;;17.94;62.36
141;BME280;65;48.778;9.160;2023-07-20T02:32:12;98368.91;;;17.86;62.25
141;BME280;65;48.778;9.160;2023-07-20T02:34:58;98364.81;;;17.82;62.41
141;BME280;65;48.778;9.160;2023-07-20T02:37:44;98372.56;;;17.85;62.91
141;BME280;65;48.778;9.160;2023-07-20T02:40:30;98372.84;;;17.82;62.18
141;BME280;65;48.778;9.160;2023-07-20T02:43:16;98374.94;;;17.79;62.53
141;BME280;65;48.778;9.160;2023-07-20T02:46:01;98373.13;;;17.79;62.66
141;BME280;65;48.778;9.160;2023-07-20T02:48:47;98377.91;;;17.76;62.56
141;BME280;65;48.778;9.160;2023-07-20T02:51:38;98383.25;;;17.76;62.95
141;BME280;65;48.778;9.160;2023-07-20T02:54:24;98372.97;;;17.71;63.08
141;BME280;65;48.778;9.160;2023-07-20T02:57:10;98377.97;;;17.64;63.82
141;BME280;65;48.778;9.160;2023-07-20T02:59:55;98382.63;;;17.62;64.83
141;BME280;65;48.778;9.160;2023-07-20T03:02:41;98384.28;;;17.54;64.62
141;BME280;65;48.778;9.160;2023-07-20T03:05:27;98392.84;;;17.48;64.67
141;BME280;65;48.778;9.160;2023-07-20T03:08:13;98387.06;;;17.43;64.49
141;BME280;65;48.778;9.160;2023-07-20T03:10:59;98387.78;;;17.45;65.41
141;BME280;65;48.778;9.160;2023-07-20T03:13:45;98389.47;;;17.46;64.64
141;BME280;65;48.778;9.160;2023-07-20T03:16:30;98387.19;;;17.41;65.00
141;BME280;65;48.778;9.160;2023-07-20T03:19:18;98386.63;;;17.37;65.04
141;BME280;65;48.778;9.160;2023-07-20T03:22:04;98389.28;;;17.37;66.33
141;BME280;65;48.778;9.160;2023-07-20T03:24:49;98392.69;;;17.39;66.12
141;BME280;65;48.778;9.160;2023-07-20T03:27:35;98393.38;;;17.42;66.77
141;BME280;65;48.778;9.160;2023-07-20T03:30:21;98390.13;;;17.38;66.67
141;BME280;65;48.778;9.160;2023-07-20T03:33:07;98395.63;;;17.36;67.24
141;BME280;65;48.778;9.160;2023-07-20T03:35:53;98395.00;;;17.33;67.07
141;BME280;65;48.778;9.160;2023-07-20T03:38:39;98390.78;;;17.30;67.53
141;BME280;65;48.778;9.160;2023-07-20T03:41:28;98394.69;;;17.26;67.01
141;BME280;65;48.778;9.160;2023-07-20T03:44:22;98395.69;;;17.25;67.74
141;BME280;65;48.778;9.160;2023-07-20T03:47:08;98401.03;;;17.25;66.68
141;BME280;65;48.778;9.160;2023-07-20T03:49:54;98397.09;;;17.29;68.34
141;BME280;65;48.778;9.160;2023-07-20T03:52:40;98400.88;;;17.27;66.71
141;BME280;65;48.778;9.160;2023-07-20T03:55:26;98396.97;;;17.31;67.25
141;BME280;65;48.778;9.160;2023-07-20T03:58:12;98405.06;;;17.41;67.61
141;BME280;65;48.778;9.160;2023-07-20T04:00:58;98408.16;;;17.46;66.78
141;BME280;65;48.778;9.160;2023-07-20T04:03:44;98402.28;;;17.52;67.03
141;BME280;65;48.778;9.160;2023-07-20T04:06:30;98402.84;;;17.55;66.33
141;BME280;65;48.778;9.160;2023-07-20T04:09:16;98407.06;;;17.48;66.57
141;BME280;65;48.778;9.160;2023-07-20T04:12:01;98405.50;;;17.46;67.69
141;BME280;65;48.778;9.160;2023-07-20T04:14:47;98409.28;;;17.43;67.11
141;BME280;65;48.778;9.160;2023-07-20T04:17:33;98418.72;;;17.47;67.24
141;BME280;65;48.778;9.160;2023-07-20T04:20:18;98411.97;;;17.43;68.41
141;BME280;65;48.778;9.160;2023-07-20T04:23:04;98413.50;;;17.46;67.19
141;BME280;65;48.778;9.160;2023-07-20T04:25:51;98413.13;;;17.60;67.26
141;BME280;65;48.778;9.160;2023-07-20T04:28:37;98413.19;;;17.69;67.14
141;BME280;65;48.778;9.160;2023-07-20T04:31:23;98414.69;;;17.93;66.42
141;BME280;65;48.778;9.160;2023-07-20T04:34:08;98412.31;;;18.09;66.70
141;BME280;65;48.778;9.160;2023-07-20T04:36:54;98417.97;;;18.25;65.54
141;BME280;65;48.778;9.160;2023-07-20T04:39:40;98418.53;;;18.29;63.78
141;BME280;65;48.778;9.160;2023-07-20T04:42:25;98414.19;;;18.47;63.46
141;BME280;65;48.778;9.160;2023-07-20T04:45:11;98411.94;;;18.81;62.65
141;BME280;65;48.778;9.160;2023-07-20T04:47:57;98412.16;;;19.07;61.59
141;BME280;65;48.778;9.160;2023-07-20T04:50:44;98409.66;;;19.15;61.63
141;BME280;65;48.778;9.160;2023-07-20T04:53:30;98412.53;;;19.32;59.49
141;BME280;65;48.778;9.160;2023-07-20T04:56:16;98416.84;;;19.52;60.70
141;BME280;65;48.778;9.160;2023-07-20T04:59:02;98415.50;;;19.75;58.54
141;BME280;65;48.778;9.160;2023-07-20T05:01:48;98417.56;;;20.09;56.45
141;BME280;65;48.778;9.160;2023-07-20T05:04:33;98421.53;;;20.32;56.86
141;BME280;65;48.778;9.160;2023-07-20T05:07:20;98423.63;;;20.56;56.40
141;BME280;65;48.778;9.160;2023-07-20T05:10:06;98416.53;;;20.91;56.65
141;BME280;65;48.778;9.160;2023-07-20T05:12:52;98412.81;;;21.09;53.26
141;BME280;65;48.778;9.160;2023-07-20T05:15:37;98412.13;;;21.59;51.79
141;BME280;65;48.778;9.160;2023-07-20T05:18:24;98414.25;;;22.16;50.73
141;BME280;65;48.778;9.160;2023-07-20T05:21:10;98413.78;;;22.53;48.55
141;BME280;65;48.778;9.160;2023-07-20T05:23:56;98411.84;;;22.87;47.89
141;BME280;65;48.778;9.160;2023-07-20T05:26:42;98406.91;;;22.66;47.66
141;BME280;65;48.778;9.160;2023-07-20T05:29:27;98409.09;;;22.79;48.02
141;BME280;65;48.778;9.160;2023-07-20T05:32:13;98409.09;;;23.28;46.94
141;BME280;65;48.778;9.160;2023-07-20T05:34:59;98410.78;;;23.92;45.97
141;BME280;65;48.778;9.160;2023-07-20T05:37:45;98408.75;;;23.31;45.74
141;BME280;65;48.778;9.160;2023-07-20T05:40:31;98402.88;;;22.79;47.76
141;BME280;65;48.778;9.160;2023-07-20T05:43:16;98403.81;;;22.21;49.55
141;BME280;65;48.778;9.160;2023-07-20T05:46:02;98408.72;;;22.50;48.70
141;BME280;65;48.778;9.160;2023-07-20T05:48:49;98411.94;;;22.53;50.41
141;BME280;65;48.778;9.160;2023-07-20T05:51:34;98405.94;;;22.92;47.58
141;BME280;65;48.778;9.160;2023-07-20T05:57:44;98405.22;;;25.02;43.98
141;BME280;65;48.778;9.160;2023-07-20T06:00:30;98405.63;;;25.28;41.94
141;BME280;65;48.778;9.160;2023-07-20T06:03:15;98410.16;;;24.13;43.79
141;BME280;65;48.778;9.160;2023-07-20T06:06:06;98412.16;;;22.84;47.32
141;BME280;65;48.778;9.160;2023-07-20T06:08:54;98415.28;;;22.31;49.89
141;BME280;65;48.778;9.160;2023-07-20T06:11:40;98414.09;;;22.25;50.32
141;BME280;65;48.778;9.160;2023-07-20T06:14:26;98408.41;;;22.53;48.70
141;BME280;65;48.778;9.160;2023-07-20T06:17:12;98419.38;;;22.59;49.57
141;BME280;65;48.778;9.160;2023-07-20T06:20:07;98421.91;;;23.26;48.16
141;BME280;65;48.778;9.160;2023-07-20T06:22:54;98418.13;;;23.76;46.35
141;BME280;65;48.778;9.160;2023-07-20T06:25:40;98423.34;;;24.08;45.61
141;BME280;65;48.778;9.160;2023-07-20T06:28:25;98428.16;;;25.06;43.83
141;BME280;65;48.778;9.160;2023-07-20T06:31:11;98424.31;;;25.52;41.78
141;BME280;65;48.778;9.160;2023-07-20T06:33:57;98428.50;;;24.80;43.45
141;BME280;65;48.778;9.160;2023-07-20T06:36:42;98412.28;;;25.55;42.19
141;BME280;65;48.778;9.160;2023-07-20T06:39:29;98411.66;;;25.68;42.20
141;BME280;65;48.778;9.160;2023-07-20T06:42:15;98413.81;;;26.38;40.70
141;BME280;65;48.778;9.160;2023-07-20T06:45:01;98413.41;;;25.90;41.84
141;BME280;65;48.778;9.160;2023-07-20T06:47:47;98408.38;;;25.87;40.63
141;BME280;65;48.778;9.160;2023-07-20T06:50:33;98412.97;;;26.37;41.58
141;BME280;65;48.778;9.160;2023-07-20T06:53:19;98417.56;;;27.50;38.51
141;BME280;65;48.778;9.160;2023-07-20T06:56:05;98410.69;;;27.76;37.61
141;BME280;65;48.778;9.160;2023-07-20T06:58:50;98407.84;;;27.62;37.35
141;BME280;65;48.778;9.160;2023-07-20T07:01:36;98411.25;;;26.94;38.30
141;BME280;65;48.778;9.160;2023-07-20T07:04:22;98409.28;;;26.09;40.37
141;BME280;65;48.778;9.160;2023-07-20T07:07:08;98413.13;;;26.14;40.13
141;BME280;65;48.778;9.160;2023-07-20T07:09:54;98413.13;;;27.42;40.88
141;BME280;65;48.778;9.160;2023-07-20T07:12:40;98407.97;;;28.91;35.08
141;BME280;65;48.778;9.160;2023-07-20T07:15:26;98403.75;;;29.28;34.65
141;BME280;65;48.778;9.160;2023-07-20T07:18:12;98402.38;;;29.97;33.56
141;BME280;65;48.778;9.160;2023-07-20T07:20:58;98402.09;;;30.69;31.59
141;BME280;65;48.778;9.160;2023-07-20T07:23:50;98399.94;;;30.78;32.38
141;BME280;65;48.778;9.160;2023-07-20T07:26:36;98393.03;;;30.31;32.17
141;BME280;65;48.778;9.160;2023-07-20T07:29:22;98399.22;;;30.00;33.12
141;BME280;65;48.778;9.160;2023-07-20T07:32:08;98394.28;;;30.35;31.77
141;BME280;65;48.778;9.160;2023-07-20T07:34:55;98387.31;;;30.39;31.15
141;BME280;65;48.778;9.160;2023-07-20T07:37:43;98389.16;;;30.13;33.86
141;BME280;65;48.778;9.160;2023-07-20T07:40:30;98395.25;;;31.10;31.31
141;BME280;65;48.778;9.160;2023-07-20T07:43:16;98388.13;;;30.46;32.65
141;BME280;65;48.778;9.160;2023-07-20T07:46:02;98393.56;;;31.09;34.73
141;BME280;65;48.778;9.160;2023-07-20T07:48:47;98389.97;;;30.90;30.62
141;BME280;65;48.778;9.160;2023-07-20T07:51:33;98388.78;;;31.04;31.19
141;BME280;65;48.778;9.160;2023-07-20T07:54:19;98390.50;;;32.10;29.61
141;BME280;65;48.778;9.160;2023-07-20T07:57:05;98382.75;;;31.70;30.16
141;BME280;65;48.778;9.160;2023-07-20T07:59:51;98384.69;;;31.45;29.46
141;BME280;65;48.778;9.160;2023-07-20T08:02:37;98383.34;;;27.56;35.85
141;BME280;65;48.778;9.160;2023-07-20T08:05:23;98381.84;;;27.47;36.78
141;BME280;65;48.778;9.160;2023-07-20T08:08:08;98387.22;;;29.10;34.38
141;BME280;65;48.778;9.160;2023-07-20T08:10:54;98383.69;;;26.90;37.60
141;BME280;65;48.778;9.160;2023-07-20T08:13:52;98388.75;;;27.49;36.19
141;BME280;65;48.778;9.160;2023-07-20T08:16:58;98375.22;;;29.70;31.94
141;BME280;65;48.778;9.160;2023-07-20T08:19:46;98378.78;;;28.58;33.85
141;BME280;65;48.778;9.160;2023-07-20T08:22:32;98377.56;;;26.82;36.11
141;BME280;65;48.778;9.160;2023-07-20T08:25:17;98377.94;;;28.51;37.16
141;BME280;65;48.778;9.160;2023-07-20T08:28:03;98372.97;;;29.27;32.60
141;BME280;65;48.778;9.160;2023-07-20T08:30:49;98381.72;;;28.63;33.96
141;BME280;65;48.778;9.160;2023-07-20T08:33:35;98374.97;;;27.51;35.74
141;BME280;65;48.778;9.160;2023-07-20T08:36:21;98381.75;;;27.05;36.57
141;BME280;65;48.778;9.160;2023-07-20T08:39:07;98387.38;;;28.62;36.88
141;BME280;65;48.778;9.160;2023-07-20T08:41:54;98381.03;;;30.76;31.10
141;BME280;65;48.778;9.160;2023-07-20T08:44:42;98378.28;;;31.33;28.13
141;BME280;65;48.778;9.160;2023-07-20T08:47:28;98375.66;;;30.63;29.03
141;BME280;65;48.778;9.160;2023-07-20T08:50:14;98372.94;;;29.47;32.51
141;BME280;65;48.778;9.160;2023-07-20T08:53:01;98385.09;;;28.04;33.43
141;BME280;65;48.778;9.160;2023-07-20T08:55:53;98385.50;;;28.62;32.94
141;BME280;65;48.778;9.160;2023-07-20T08:58:39;98377.16;;;29.56;31.04
141;BME280;65;48.778;9.160;2023-07-20T09:01:28;98375.66;;;31.20;29.93
141;BME280;65;48.778;9.160;2023-07-20T09:04:15;98378.38;;;32.96;27.07
141;BME280;65;48.778;9.160;2023-07-20T09:07:01;98379.06;;;32.50;32.97
141;BME280;65;48.778;9.160;2023-07-20T09:09:47;98377.38;;;32.90;28.43
141;BME280;65;48.778;9.160;2023-07-20T09:12:39;98369.63;;;29.52;32.46
141;BME280;65;48.778;9.160;2023-07-20T09:15:25;98370.81;;;27.89;34.24
141;BME280;65;48.778;9.160;2023-07-20T09:18:11;98373.88;;;26.10;36.04
141;BME280;65;48.778;9.160;2023-07-20T09:21:06;98366.75;;;27.09;34.66
141;BME280;65;48.778;9.160;2023-07-20T09:23:56;98372.16;;;29.98;31.03
141;BME280;65;48.778;9.160;2023-07-20T09:26:43;98358.38;;;33.89;26.64
141;BME280;65;48.778;9.160;2023-07-20T09:29:30;98361.31;;;30.36;30.08
141;BME280;65;48.778;9.160;2023-07-20T09:32:20;98367.47;;;27.87;33.09
141;BME280;65;48.778;9.160;2023-07-20T09:35:06;98374.16;;;24.98;37.82
141;BME280;65;48.778;9.160;2023-07-20T09:37:58;98367.38;;;23.63;40.61
141;BME280;65;48.778;9.160;2023-07-20T09:40:44;98373.16;;;25.87;37.29
141;BME280;65;48.778;9.160;2023-07-20T09:43:31;98370.34;;;27.79;35.65
141;BME280;65;48.778;9.160;2023-07-20T09:46:17;98358.28;;;30.19;29.98
141;BME280;65;48.778;9.160;2023-07-20T09:49:08;98352.22;;;31.73;28.10
141;BME280;65;48.778;9.160;2023-07-20T09:51:55;98350.28;;;32.29;25.40
141;BME280;65;48.778;9.160;2023-07-20T09:54:44;98364.00;;;30.81;26.63
141;BME280;65;48.778;9.160;2023-07-20T09:57:33;98365.78;;;27.86;30.46
141;BME280;65;48.778;9.160;2023-07-20T10:00:19;98353.06;;;27.59;31.88
141;BME280;65;48.778;9.160;2023-07-20T10:03:06;98355.56;;;27.88;32.15
141;BME280;65;48.778;9.160;2023-07-20T10:09:35;98347.59;;;30.18;29.38
141;BME280;65;48.778;9.160;2023-07-20T10:12:25;98353.31;;;31.66;26.96
141;BME280;65;48.778;9.160;2023-07-20T10:15:36;98348.44;;;32.23;28.90
141;BME280;65;48.778;9.160;2023-07-20T10:18:35;98337.47;;;31.56;28.18
141;BME280;65;48.778;9.160;2023-07-20T10:21:24;98341.88;;;30.64;27.68
141;BME280;65;48.778;9.160;2023-07-20T10:24:11;98345.09;;;28.59;29.66
141;BME280;65;48.778;9.160;2023-07-20T10:26:57;98338.50;;;28.21;32.52
141;BME280;65;48.778;9.160;2023-07-20T10:29:43;98333.75;;;29.42;29.70
141;BME280;65;48.778;9.160;2023-07-20T10:32:29;98332.78;;;32.00;25.32
141;BME280;65;48.778;9.160;2023-07-20T10:35:16;98327.44;;;32.77;24.16
141;BME280;65;48.778;9.160;2023-07-20T10:38:03;98319.00;;;34.52;22.37
141;BME280;65;48.778;9.160;2023-07-20T10:40:55;98315.84;;;33.63;23.18
141;BME280;65;48.778;9.160;2023-07-20T10:43:45;98313.44;;;33.67;24.23
141;BME280;65;48.778;9.160;2023-07-20T10:46:44;98314.53;;;34.79;22.18
141;BME280;65;48.778;9.160;2023-07-20T10:49:35;98306.53;;;32.94;24.77
141;BME280;65;48.778;9.160;2023-07-20T10:52:21;98307.31;;;35.07;22.93
141;BME280;65;48.778;9.160;2023-07-20T10:55:11;98314.16;;;34.87;20.74
141;BME280;65;48.778;9.160;2023-07-20T10:58:08;98314.84;;;34.66;20.86
141;BME280;65;48.778;9.160;2023-07-20T11:00:57;98309.31;;;32.22;23.64
141;BME280;65;48.778;9.160;2023-07-20T11:03:49;98299.31;;;32.99;24.84
141;BME280;65;48.778;9.160;2023-07-20T11:06:43;98306.38;;;32.77;25.07
141;BME280;65;48.778;9.160;2023-07-20T11:09:34;98304.28;;;32.37;24.25
141;BME280;65;48.778;9.160;2023-07-20T11:12:20;98308.31;;;31.07;25.06
141;BME280;65;48.778;9.160;2023-07-20T11:15:06;98297.75;;;29.46;26.54
141;BME280;65;48.778;9.160;2023-07-20T11:17:52;98292.38;;;31.29;24.35
141;BME280;65;48.778;9.160;2023-07-20T11:20:56;98298.44;;;32.34;22.76
141;BME280;65;48.778;9.160;2023-07-20T11:23:42;98293.63;;;32.71;22.68
141;BME280;65;48.778;9.160;2023-07-20T11:26:29;98301.56;;;33.03;24.11
141;BME280;65;48.778;9.160;2023-07-20T11:29:16;98295.25;;;33.14;23.63
141;BME280;65;48.778;9.160;2023-07-20T11:32:03;98291.91;;;34.72;21.32
141;BME280;65;48.778;9.160;2023-07-20T11:34:49;98290.25;;;34.71;23.45
141;BME280;65;48.778;9.160;2023-07-20T11:37:35;98291.78;;;31.45;25.30
141;BME280;65;48.778;9.160;2023-07-20T11:40:22;98288.19;;;31.99;24.64
141;BME280;65;48.778;9.160;2023-07-20T11:43:08;98284.59;;;34.04;22.63
141;BME280;65;48.778;9.160;2023-07-20T11:45:55;98274.25;;;35.35;20.53
141;BME280;65;48.778;9.160;2023-07-20T11:48:40;98278.69;;;36.29;19.12
141;BME280;65;48.778;9.160;2023-07-20T11:51:27;98271.41;;;34.46;20.90
141;BME280;65;48.778;9.160;2023-07-20T11:54:13;98273.13;;;32.38;23.60
141;BME280;65;48.778;9.160;2023-07-20T11:57:03;98261.25;;;33.50;22.46
141;BME280;65;48.778;9.160;2023-07-20T12:00:02;98260.47;;;33.78;20.56
141;BME280;65;48.778;9.160;2023-07-20T12:02:53;98261.06;;;32.93;22.33
141;BME280;65;48.778;9.160;2023-07-20T12:05:39;98267.66;;;34.07;21.75
141;BME280;65;48.778;9.160;2023-07-20T12:08:25;98255.91;;;32.73;21.38
141;BME280;65;48.778;9.160;2023-07-20T12:11:11;98244.72;;;30.32;22.63
141;BME280;65;48.778;9.160;2023-07-20T12:13:58;98259.25;;;28.04;25.52
141;BME280;65;48.778;9.160;2023-07-20T12:16:44;98255.03;;;27.40;28.21
141;BME280;65;48.778;9.160;2023-07-20T12:19:29;98256.31;;;28.06;27.45
141;BME280;65;48.778;9.160;2023-07-20T12:22:15;98251.66;;;29.89;26.61
141;BME280;65;48.778;9.160;2023-07-20T12:25:05;98244.72;;;31.43;23.09
141;BME280;65;48.778;9.160;2023-07-20T12:27:51;98236.84;;;32.55;23.35
141;BME280;65;48.778;9.160;2023-07-20T12:30:38;98239.06;;;32.99;21.76
141;BME280;65;48.778;9.160;2023-07-20T12:33:24;98241.31;;;33.03;21.87
141;BME280;65;48.778;9.160;2023-07-20T12:36:10;98249.06;;;32.29;22.21
141;BME280;65;48.778;9.160;2023-07-20T12:38:56;98239.88;;;31.93;24.21
141;BME280;65;48.778;9.160;2023-07-20T12:41:41;98238.66;;;30.79;26.19
141;BME280;65;48.778;9.160;2023-07-20T12:44:27;98231.28;;;30.30;29.67
141;BME280;65;48.778;9.160;2023-07-20T12:47:13;98219.13;;;29.63;26.43
141;BME280;65;48.778;9.160;2023-07-20T12:49:59;98221.22;;;30.31;26.27
141;BME280;65;48.778;9.160;2023-07-20T12:52:45;98219.94;;;30.33;25.71
141;BME280;65;48.778;9.160;2023-07-20T12:55:31;98226.09;;;29.46;30.99
141;BME280;65;48.778;9.160;2023-07-20T12:58:17;98222.34;;;29.34;26.21
141;BME280;65;48.778;9.160;2023-07-20T13:01:03;98214.06;;;29.98;25.40
141;BME280;65;48.778;9.160;2023-07-20T13:03:49;98203.06;;;30.18;23.56
141;BME280;65;48.778;9.160;2023-07-20T13:06:35;98199.06;;;29.82;25.44
141;BME280;65;48.778;9.160;2023-07-20T13:09:21;98201.06;;;30.00;24.91
141;BME280;65;48.778;9.160;2023-07-20T13:12:07;98197.28;;;30.01;23.88
141;BME280;65;48.778;9.160;2023-07-20T13:14:54;98193.63;;;29.44;26.31
141;BME280;65;48.778;9.160;2023-07-20T13:17:42;98193.69;;;29.24;24.64
141;BME280;65;48.778;9.160;2023-07-20T13:20:33;98192.31;;;28.89;25.78
141;BME280;65;48.778;9.160;2023-07-20T13:23:18;98192.31;;;29.02;25.76
141;BME280;65;48.778;9.160;2023-07-20T13:26:05;98195.47;;;29.57;25.96
141;BME280;65;48.778;9.160;2023-07-20T13:28:51;98198.19;;;28.86;25.20
141;BME280;65;48.778;9.160;2023-07-20T13:31:36;98192.13;;;28.11;27.37
141;BME280;65;48.778;9.160;2023-07-20T13:34:23;98200.75;;;28.54;28.21
141;BME280;65;48.778;9.160;2023-07-20T13:37:09;98179.13;;;28.99;26.30
141;BME280;65;48.778;9.160;2023-07-20T13:39:55;98180.84;;;29.45;27.96
141;BME280;65;48.778;9.160;2023-07-20T13:42:41;98195.03;;;28.89;28.12
141;BME280;65;48.778;9.160;2023-07-20T13:45:27;98186.50;;;29.43;24.57
141;BME280;65;48.778;9.160;2023-07-20T13:48:12;98190.56;;;29.21;27.08
141;BME280;65;48.778;9.160;2023-07-20T13:50:59;98183.53;;;29.89;24.82
141;BME280;65;48.778;9.160;2023-07-20T13:53:47;98182.16;;;29.74;25.01
141;BME280;65;48.778;9.160;2023-07-20T13:56:33;98171.22;;;29.49;27.76
141;BME280;65;48.778;9.160;2023-07-20T13:59:18;98171.88;;;29.76;25.09
141;BME280;65;48.778;9.160;2023-07-20T14:02:05;98175.88;;;29.73;25.70
141;BME280;65;48.778;9.160;2023-07-20T14:04:51;98164.00;;;29.61;24.61
141;BME280;65;48.778;9.160;2023-07-20T14:07:36;98162.75;;;29.12;25.68
141;BME280;65;48.778;9.160;2023-07-20T14:10:23;98166.16;;;29.39;25.97
141;BME280;65;48.778;9.160;2023-07-20T14:13:09;98165.63;;;29.24;25.03
141;BME280;65;48.778;9.160;2023-07-20T14:15:55;98148.34;;;29.05;27.07
141;BME280;65;48.778;9.160;2023-07-20T14:18:41;98152.94;;;29.05;25.02
141;BME280;65;48.778;9.160;2023-07-20T14:21:27;98151.94;;;28.73;25.32
141;BME280;65;48.778;9.160;2023-07-20T14:24:14;98152.22;;;28.51;26.82
141;BME280;65;48.778;9.160;2023-07-20T14:27:00;98150.13;;;28.53;26.73
141;BME280;65;48.778;9.160;2023-07-20T14:29:46;98143.44;;;28.43;25.10
141;BME280;65;48.778;9.160;2023-07-20T14:32:32;98137.59;;;28.46;26.98
141;BME280;65;48.778;9.160;2023-07-20T14:35:19;98138.72;;;29.03;25.04
141;BME280;65;48.778;9.160;2023-07-20T14:38:05;98135.19;;;28.82;26.13
141;BME280;65;48.778;9.160;2023-07-20T14:40:51;98134.97;;;28.97;24.80
141;BME280;65;48.778;9.160;2023-07-20T14:43:37;98135.66;;;28.59;25.42
141;BME280;65;48.778;9.160;2023-07-20T14:46:24;98141.97;;;28.07;24.63
141;BME280;65;48.778;9.160;2023-07-20T14:49:09;98133.38;;;28.17;28.71
141;BME280;65;48.778;9.160;2023-07-20T14:51:56;98126.28;;;28.22;26.09
141;BME280;65;48.778;9.160;2023-07-20T14:54:42;98132.56;;;27.83;25.94
141;BME280;65;48.778;9.160;2023-07-20T14:57:27;98133.31;;;27.51;27.95
141;BME280;65;48.778;9.160;2023-07-20T15:00:13;98134.00;;;27.05;29.66
141;BME280;65;48.778;9.160;2023-07-20T15:03:00;98131.69;;;27.02;28.24
141;BME280;65;48.778;9.160;2023-07-20T15:05:46;98136.44;;;27.48;27.24
141;BME280;65;48.778;9.160;2023-07-20T15:08:31;98130.41;;;27.59;28.17
141;BME280;65;48.778;9.160;2023-07-20T15:11:17;98118.88;;;27.44;26.22
141;BME280;65;48.778;9.160;2023-07-20T15:14:03;98115.34;;;27.56;26.78
141;BME280;65;48.778;9.160;2023-07-20T15:16:49;98129.84;;;27.16;29.33
141;BME280;65;48.778;9.160;2023-07-20T15:19:34;98119.72;;;26.90;28.86
141;BME280;65;48.778;9.160;2023-07-20T15:22:21;98119.72;;;26.90;28.56
141;BME280;65;48.778;9.160;2023-07-20T15:25:08;98111.56;;;26.90;26.85
141;BME280;65;48.778;9.160;2023-07-20T15:27:54;98111.34;;;26.85;28.64
141;BME280;65;48.778;9.160;2023-07-20T15:30:40;98114.09;;;26.91;27.58
141;BME280;65;48.778;9.160;2023-07-20T15:33:26;98109.47;;;26.85;28.94
141;BME280;65;48.778;9.160;2023-07-20T15:36:12;98111.44;;;26.98;27.27
141;BME280;65;48.778;9.160;2023-07-20T15:38:58;98102.91;;;26.60;31.12
141;BME280;65;48.778;9.160;2023-07-20T15:41:43;98102.34;;;26.43;29.46
141;BME280;65;48.778;9.160;2023-07-20T15:44:29;98106.84;;;26.29;27.83
141;BME280;65;48.778;9.160;2023-07-20T15:47:15;98095.91;;;26.44;28.23
141;BME280;65;48.778;9.160;2023-07-20T15:50:02;98093.22;;;26.51;27.86
141;BME280;65;48.778;9.160;2023-07-20T15:52:48;98090.09;;;26.54;28.21
141;BME280;65;48.778;9.160;2023-07-20T15:55:34;98096.84;;;26.30;29.37
141;BME280;65;48.778;9.160;2023-07-20T15:58:23;98087.53;;;26.11;28.43